Terminal Aerodrome Forecast
Issued by NWS Goodland, KS

Home | Current Version | Previous Version | Text Only | Print | Product List | Glossary On
Versions: 1 2 3 4 5 6 7 8 9 10 11 12 13 14
000
FTUS43 KGLD 182320
TAFGLD
TAF
KGLD 182320Z 1900/1924 33007KT P6SM SKC
     FM190200 27005KT P6SM SKC
     FM191400 23009KT P6SM FEW300
     FM192300 20008KT P6SM SCT230=

USA.gov is the U.S. government's official web portal to all federal, state and local government web resources and services.